sensor_id;sensor_type;location;lat;lon;timestamp;temperature;humidity
76239;SHT30;65043;48.392;-4.472;2022-11-21T00:00:28;13.60;73.71
76239;SHT30;65043;48.392;-4.472;2022-11-21T00:02:57;13.66;73.73
76239;SHT30;65043;48.392;-4.472;2022-11-21T00:05:23;13.66;73.69
76239;SHT30;65043;48.392;-4.472;2022-11-21T00:07:48;13.69;73.63
76239;SHT30;65043;48.392;-4.472;2022-11-21T00:10:14;13.66;73.60
76239;SHT30;65043;48.392;-4.472;2022-11-21T00:12:40;13.66;73.64
76239;SHT30;65043;48.392;-4.472;2022-11-21T00:15:05;13.64;73.61
76239;SHT30;65043;48.392;-4.472;2022-11-21T00:17:31;13.61;73.95
76239;SHT30;65043;48.392;-4.472;2022-11-21T00:19:56;13.64;73.93
76239;SHT30;65043;48.392;-4.472;2022-11-21T00:22:21;13.66;73.68
76239;SHT30;65043;48.392;-4.472;2022-11-21T00:24:47;13.67;73.55
76239;SHT30;65043;48.392;-4.472;2022-11-21T00:27:12;13.67;73.26
76239;SHT30;65043;48.392;-4.472;2022-11-21T00:29:38;13.63;73.35
76239;SHT30;65043;48.392;-4.472;2022-11-21T00:32:03;13.61;73.38
76239;SHT30;65043;48.392;-4.472;2022-11-21T00:34:29;13.63;73.28
76239;SHT30;65043;48.392;-4.472;2022-11-21T00:36:54;13.60;73.14
76239;SHT30;65043;48.392;-4.472;2022-11-21T00:39:19;13.60;73.29
76239;SHT30;65043;48.392;-4.472;2022-11-21T00:41:45;13.61;73.11
76239;SHT30;65043;48.392;-4.472;2022-11-21T00:44:10;13.59;73.17
76239;SHT30;65043;48.392;-4.472;2022-11-21T00:46:35;13.54;73.40
76239;SHT30;65043;48.392;-4.472;2022-11-21T00:49:01;13.57;73.46
76239;SHT30;65043;48.392;-4.472;2022-11-21T00:51:26;13.54;73.65
76239;SHT30;65043;48.392;-4.472;2022-11-21T00:53:52;13.56;73.66
76239;SHT30;65043;48.392;-4.472;2022-11-21T00:56:17;13.56;73.80
76239;SHT30;65043;48.392;-4.472;2022-11-21T00:58:42;13.63;73.47
76239;SHT30;65043;48.392;-4.472;2022-11-21T01:01:11;13.64;73.37
76239;SHT30;65043;48.392;-4.472;2022-11-21T01:03:37;13.64;73.43
76239;SHT30;65043;48.392;-4.472;2022-11-21T01:06:07;13.63;73.74
76239;SHT30;65043;48.392;-4.472;2022-11-21T01:08:35;13.66;73.84
76239;SHT30;65043;48.392;-4.472;2022-11-21T01:11:06;13.66;73.75
76239;SHT30;65043;48.392;-4.472;2022-11-21T01:13:32;13.70;73.74
76239;SHT30;65043;48.392;-4.472;2022-11-21T01:16:05;13.70;73.72
76239;SHT30;65043;48.392;-4.472;2022-11-21T01:18:31;13.70;73.94
76239;SHT30;65043;48.392;-4.472;2022-11-21T01:21:05;13.69;73.98
76239;SHT30;65043;48.392;-4.472;2022-11-21T01:23:31;13.66;73.87
76239;SHT30;65043;48.392;-4.472;2022-11-21T01:26:04;13.69;74.03
76239;SHT30;65043;48.392;-4.472;2022-11-21T01:28:30;13.66;74.00
76239;SHT30;65043;48.392;-4.472;2022-11-21T01:31:05;13.63;74.29
76239;SHT30;65043;48.392;-4.472;2022-11-21T01:33:32;13.67;74.49
76239;SHT30;65043;48.392;-4.472;2022-11-21T01:36:14;13.64;74.71
76239;SHT30;65043;48.392;-4.472;2022-11-21T01:38:43;13.64;74.24
76239;SHT30;65043;48.392;-4.472;2022-11-21T01:41:10;13.66;74.29
76239;SHT30;65043;48.392;-4.472;2022-11-21T01:43:36;13.66;74.39
76239;SHT30;65043;48.392;-4.472;2022-11-21T01:51:45;13.64;74.06
76239;SHT30;65043;48.392;-4.472;2022-11-21T01:54:25;13.54;73.50
76239;SHT30;65043;48.392;-4.472;2022-11-21T01:57:00;13.43;73.60
76239;SHT30;65043;48.392;-4.472;2022-11-21T01:59:32;13.36;74.15
76239;SHT30;65043;48.392;-4.472;2022-11-21T02:02:02;13.38;74.57
76239;SHT30;65043;48.392;-4.472;2022-11-21T02:04:31;13.38;75.11
76239;SHT30;65043;48.392;-4.472;2022-11-21T02:06:58;13.40;75.38
76239;SHT30;65043;48.392;-4.472;2022-11-21T02:09:26;13.44;75.11
76239;SHT30;65043;48.392;-4.472;2022-11-21T02:12:04;13.50;75.00
76239;SHT30;65043;48.392;-4.472;2022-11-21T02:14:31;13.53;74.88
76239;SHT30;65043;48.392;-4.472;2022-11-21T02:16:59;13.53;74.92
76239;SHT30;65043;48.392;-4.472;2022-11-21T02:22:16;13.63;74.56
76239;SHT30;65043;48.392;-4.472;2022-11-21T02:25:20;13.66;74.59
76239;SHT30;65043;48.392;-4.472;2022-11-21T02:27:46;13.70;74.43
76239;SHT30;65043;48.392;-4.472;2022-11-21T02:30:14;13.70;74.43
76239;SHT30;65043;48.392;-4.472;2022-11-21T02:32:42;13.75;74.44
76239;SHT30;65043;48.392;-4.472;2022-11-21T02:35:12;13.71;74.53
76239;SHT30;65043;48.392;-4.472;2022-11-21T02:37:38;13.63;74.89
76239;SHT30;65043;48.392;-4.472;2022-11-21T02:40:10;13.61;75.09
76239;SHT30;65043;48.392;-4.472;2022-11-21T02:42:42;13.60;75.16
76239;SHT30;65043;48.392;-4.472;2022-11-21T02:45:13;13.60;75.24
76239;SHT30;65043;48.392;-4.472;2022-11-21T02:47:41;13.63;75.17
76239;SHT30;65043;48.392;-4.472;2022-11-21T02:50:15;13.60;75.12
76239;SHT30;65043;48.392;-4.472;2022-11-21T02:52:43;13.54;75.11
76239;SHT30;65043;48.392;-4.472;2022-11-21T02:55:08;13.56;75.42
76239;SHT30;65043;48.392;-4.472;2022-11-21T02:57:36;13.53;75.53
76239;SHT30;65043;48.392;-4.472;2022-11-21T03:00:02;13.53;75.73
76239;SHT30;65043;48.392;-4.472;2022-11-21T03:02:28;13.50;75.81
76239;SHT30;65043;48.392;-4.472;2022-11-21T03:04:53;13.50;75.88
76239;SHT30;65043;48.392;-4.472;2022-11-21T03:07:19;13.50;75.69
76239;SHT30;65043;48.392;-4.472;2022-11-21T03:09:44;13.53;75.47
76239;SHT30;65043;48.392;-4.472;2022-11-21T03:12:10;13.46;75.85
76239;SHT30;65043;48.392;-4.472;2022-11-21T03:14:35;13.46;75.81
76239;SHT30;65043;48.392;-4.472;2022-11-21T03:17:02;13.47;75.81
76239;SHT30;65043;48.392;-4.472;2022-11-21T03:19:28;13.47;75.89
76239;SHT30;65043;48.392;-4.472;2022-11-21T03:21:53;13.47;75.99
76239;SHT30;65043;48.392;-4.472;2022-11-21T03:24:19;13.49;76.06
76239;SHT30;65043;48.392;-4.472;2022-11-21T03:26:44;13.50;76.13
76239;SHT30;65043;48.392;-4.472;2022-11-21T03:29:10;13.43;76.40
76239;SHT30;65043;48.392;-4.472;2022-11-21T03:31:35;13.39;76.79
76239;SHT30;65043;48.392;-4.472;2022-11-21T03:34:01;13.38;77.05
76239;SHT30;65043;48.392;-4.472;2022-11-21T03:36:26;13.40;77.25
76239;SHT30;65043;48.392;-4.472;2022-11-21T03:38:54;13.40;77.56
76239;SHT30;65043;48.392;-4.472;2022-11-21T03:41:20;13.32;77.94
76239;SHT30;65043;48.392;-4.472;2022-11-21T03:44:04;13.30;78.10
76239;SHT30;65043;48.392;-4.472;2022-11-21T03:46:31;13.27;78.27
76239;SHT30;65043;48.392;-4.472;2022-11-21T03:48:57;13.33;77.88
76239;SHT30;65043;48.392;-4.472;2022-11-21T03:51:23;13.29;78.14
76239;SHT30;65043;48.392;-4.472;2022-11-21T03:53:49;13.27;78.44
76239;SHT30;65043;48.392;-4.472;2022-11-21T03:56:15;13.32;78.61
76239;SHT30;65043;48.392;-4.472;2022-11-21T03:58:40;13.27;78.87
76239;SHT30;65043;48.392;-4.472;2022-11-21T04:01:06;13.23;79.38
76239;SHT30;65043;48.392;-4.472;2022-11-21T04:03:32;13.24;79.49
76239;SHT30;65043;48.392;-4.472;2022-11-21T04:05:58;13.19;79.97
76239;SHT30;65043;48.392;-4.472;2022-11-21T04:08:24;13.12;80.31
76239;SHT30;65043;48.392;-4.472;2022-11-21T04:10:50;13.06;80.86
76239;SHT30;65043;48.392;-4.472;2022-11-21T04:13:17;13.01;81.12
76239;SHT30;65043;48.392;-4.472;2022-11-21T04:15:43;12.98;80.98
76239;SHT30;65043;48.392;-4.472;2022-11-21T04:18:09;12.93;81.54
76239;SHT30;65043;48.392;-4.472;2022-11-21T04:20:35;12.95;82.03
76239;SHT30;65043;48.392;-4.472;2022-11-21T04:23:04;12.87;82.71
76239;SHT30;65043;48.392;-4.472;2022-11-21T04:25:29;12.80;82.83
76239;SHT30;65043;48.392;-4.472;2022-11-21T04:27:59;12.77;83.10
76239;SHT30;65043;48.392;-4.472;2022-11-21T04:30:25;12.80;83.15
76239;SHT30;65043;48.392;-4.472;2022-11-21T04:32:54;12.74;83.13
76239;SHT30;65043;48.392;-4.472;2022-11-21T04:35:23;12.81;82.84
76239;SHT30;65043;48.392;-4.472;2022-11-21T04:37:49;12.82;82.64
76239;SHT30;65043;48.392;-4.472;2022-11-21T04:40:15;12.85;82.99
76239;SHT30;65043;48.392;-4.472;2022-11-21T04:42:41;12.81;82.97
76239;SHT30;65043;48.392;-4.472;2022-11-21T04:45:07;12.80;83.48
76239;SHT30;65043;48.392;-4.472;2022-11-21T04:47:39;12.77;83.03
76239;SHT30;65043;48.392;-4.472;2022-11-21T04:50:06;12.74;83.01
76239;SHT30;65043;48.392;-4.472;2022-11-21T04:52:32;12.77;82.86
76239;SHT30;65043;48.392;-4.472;2022-11-21T04:54:57;12.75;82.56
76239;SHT30;65043;48.392;-4.472;2022-11-21T04:57:23;12.78;82.36
76239;SHT30;65043;48.392;-4.472;2022-11-21T04:59:49;12.75;82.32
76239;SHT30;65043;48.392;-4.472;2022-11-21T05:02:14;12.72;82.49
76239;SHT30;65043;48.392;-4.472;2022-11-21T05:04:40;12.78;82.48
76239;SHT30;65043;48.392;-4.472;2022-11-21T05:07:05;12.74;82.51
76239;SHT30;65043;48.392;-4.472;2022-11-21T05:09:31;12.71;82.97
76239;SHT30;65043;48.392;-4.472;2022-11-21T05:11:56;12.71;83.33
76239;SHT30;65043;48.392;-4.472;2022-11-21T05:14:40;12.74;83.43
76239;SHT30;65043;48.392;-4.472;2022-11-21T05:17:05;12.75;83.58
76239;SHT30;65043;48.392;-4.472;2022-11-21T05:19:31;12.75;83.61
76239;SHT30;65043;48.392;-4.472;2022-11-21T05:21:56;12.77;83.35
76239;SHT30;65043;48.392;-4.472;2022-11-21T05:24:21;12.78;83.39
76239;SHT30;65043;48.392;-4.472;2022-11-21T05:26:47;12.75;83.37
76239;SHT30;65043;48.392;-4.472;2022-11-21T05:29:12;12.77;83.72
76239;SHT30;65043;48.392;-4.472;2022-11-21T05:31:38;12.78;83.51
76239;SHT30;65043;48.392;-4.472;2022-11-21T05:34:03;12.78;83.50
76239;SHT30;65043;48.392;-4.472;2022-11-21T05:36:29;12.82;83.35
76239;SHT30;65043;48.392;-4.472;2022-11-21T05:38:54;12.91;83.33
76239;SHT30;65043;48.392;-4.472;2022-11-21T05:41:20;12.89;83.41
76239;SHT30;65043;48.392;-4.472;2022-11-21T05:43:45;12.92;83.75
76239;SHT30;65043;48.392;-4.472;2022-11-21T05:46:12;12.93;83.15
76239;SHT30;65043;48.392;-4.472;2022-11-21T05:48:38;12.93;84.19
76239;SHT30;65043;48.392;-4.472;2022-11-21T05:51:03;12.89;84.59
76239;SHT30;65043;48.392;-4.472;2022-11-21T05:53:29;12.92;84.54
76239;SHT30;65043;48.392;-4.472;2022-11-21T05:55:55;12.93;84.68
76239;SHT30;65043;48.392;-4.472;2022-11-21T05:58:25;12.95;84.59
76239;SHT30;65043;48.392;-4.472;2022-11-21T06:00:55;12.93;84.83
76239;SHT30;65043;48.392;-4.472;2022-11-21T06:03:21;12.96;85.00
76239;SHT30;65043;48.392;-4.472;2022-11-21T06:08:26;13.05;84.84
76239;SHT30;65043;48.392;-4.472;2022-11-21T06:10:52;13.01;84.95
76239;SHT30;65043;48.392;-4.472;2022-11-21T06:13:18;13.03;85.04
76239;SHT30;65043;48.392;-4.472;2022-11-21T06:15:51;13.09;84.95
76239;SHT30;65043;48.392;-4.472;2022-11-21T06:18:17;13.05;85.32
76239;SHT30;65043;48.392;-4.472;2022-11-21T06:20:43;13.09;85.21
76239;SHT30;65043;48.392;-4.472;2022-11-21T06:23:08;13.08;85.19
76239;SHT30;65043;48.392;-4.472;2022-11-21T06:25:33;13.15;85.20
76239;SHT30;65043;48.392;-4.472;2022-11-21T06:27:59;13.15;85.11
76239;SHT30;65043;48.392;-4.472;2022-11-21T06:30:24;13.19;84.62
76239;SHT30;65043;48.392;-4.472;2022-11-21T06:32:50;13.13;84.80
76239;SHT30;65043;48.392;-4.472;2022-11-21T06:35:15;13.13;85.05
76239;SHT30;65043;48.392;-4.472;2022-11-21T06:37:41;13.09;85.17
76239;SHT30;65043;48.392;-4.472;2022-11-21T06:40:07;13.08;85.51
76239;SHT30;65043;48.392;-4.472;2022-11-21T06:42:32;13.11;85.48
76239;SHT30;65043;48.392;-4.472;2022-11-21T06:44:58;13.15;85.15
76239;SHT30;65043;48.392;-4.472;2022-11-21T06:47:23;13.11;85.17
76239;SHT30;65043;48.392;-4.472;2022-11-21T06:49:48;13.16;85.02
76239;SHT30;65043;48.392;-4.472;2022-11-21T06:52:14;13.15;85.20
76239;SHT30;65043;48.392;-4.472;2022-11-21T06:54:39;13.18;85.24
76239;SHT30;65043;48.392;-4.472;2022-11-21T06:57:05;13.15;85.40
76239;SHT30;65043;48.392;-4.472;2022-11-21T06:59:30;13.15;85.39
76239;SHT30;65043;48.392;-4.472;2022-11-21T07:01:55;13.13;85.56
76239;SHT30;65043;48.392;-4.472;2022-11-21T07:04:21;13.15;85.80
76239;SHT30;65043;48.392;-4.472;2022-11-21T07:06:46;13.16;85.95
76239;SHT30;65043;48.392;-4.472;2022-11-21T07:09:11;13.20;86.14
76239;SHT30;65043;48.392;-4.472;2022-11-21T07:11:37;13.20;86.08
76239;SHT30;65043;48.392;-4.472;2022-11-21T07:14:02;13.24;86.49
76239;SHT30;65043;48.392;-4.472;2022-11-21T07:16:28;13.29;86.48
76239;SHT30;65043;48.392;-4.472;2022-11-21T07:18:56;13.30;86.68
76239;SHT30;65043;48.392;-4.472;2022-11-21T07:21:21;13.35;87.30
76239;SHT30;65043;48.392;-4.472;2022-11-21T07:23:47;13.36;87.62
76239;SHT30;65043;48.392;-4.472;2022-11-21T07:26:13;13.36;87.94
76239;SHT30;65043;48.392;-4.472;2022-11-21T07:28:38;13.39;88.28
76239;SHT30;65043;48.392;-4.472;2022-11-21T07:31:04;13.40;88.28
76239;SHT30;65043;48.392;-4.472;2022-11-21T07:33:30;13.44;88.43
76239;SHT30;65043;48.392;-4.472;2022-11-21T07:35:56;13.63;87.52
76239;SHT30;65043;48.392;-4.472;2022-11-21T07:38:22;13.73;87.73
76239;SHT30;65043;48.392;-4.472;2022-11-21T07:40:47;13.75;87.83
76239;SHT30;65043;48.392;-4.472;2022-11-21T07:43:13;13.81;88.00
76239;SHT30;65043;48.392;-4.472;2022-11-21T07:45:38;13.87;87.04
76239;SHT30;65043;48.392;-4.472;2022-11-21T07:48:05;13.91;86.07
76239;SHT30;65043;48.392;-4.472;2022-11-21T07:50:32;13.97;85.23
76239;SHT30;65043;48.392;-4.472;2022-11-21T07:53:03;13.97;84.38
76239;SHT30;65043;48.392;-4.472;2022-11-21T07:55:29;14.01;84.06
76239;SHT30;65043;48.392;-4.472;2022-11-21T07:58:05;13.98;83.79
76239;SHT30;65043;48.392;-4.472;2022-11-21T08:00:32;13.98;82.25
76239;SHT30;65043;48.392;-4.472;2022-11-21T08:02:58;13.92;81.73
76239;SHT30;65043;48.392;-4.472;2022-11-21T08:05:23;13.92;80.46
76239;SHT30;65043;48.392;-4.472;2022-11-21T08:07:49;13.91;80.34
76239;SHT30;65043;48.392;-4.472;2022-11-21T08:10:15;13.88;80.08
76239;SHT30;65043;48.392;-4.472;2022-11-21T08:12:42;13.87;80.09
76239;SHT30;65043;48.392;-4.472;2022-11-21T08:15:07;13.87;80.21
76239;SHT30;65043;48.392;-4.472;2022-11-21T08:17:33;13.84;80.23
76239;SHT30;65043;48.392;-4.472;2022-11-21T08:19:58;13.81;80.16
76239;SHT30;65043;48.392;-4.472;2022-11-21T08:22:25;13.81;79.73
76239;SHT30;65043;48.392;-4.472;2022-11-21T08:24:51;13.77;79.17
76239;SHT30;65043;48.392;-4.472;2022-11-21T08:27:18;13.75;79.44
76239;SHT30;65043;48.392;-4.472;2022-11-21T08:29:48;13.75;78.93
76239;SHT30;65043;48.392;-4.472;2022-11-21T08:32:13;13.77;77.46
76239;SHT30;65043;48.392;-4.472;2022-11-21T08:34:39;13.77;76.98
76239;SHT30;65043;48.392;-4.472;2022-11-21T08:37:04;13.78;77.09
76239;SHT30;65043;48.392;-4.472;2022-11-21T08:39:30;13.75;75.59
76239;SHT30;65043;48.392;-4.472;2022-11-21T08:41:56;13.77;75.46
76239;SHT30;65043;48.392;-4.472;2022-11-21T08:44:36;13.77;75.86
76239;SHT30;65043;48.392;-4.472;2022-11-21T08:47:01;13.77;76.34
76239;SHT30;65043;48.392;-4.472;2022-11-21T08:49:27;13.78;74.44
76239;SHT30;65043;48.392;-4.472;2022-11-21T08:51:53;13.73;73.31
76239;SHT30;65043;48.392;-4.472;2022-11-21T08:54:20;13.73;73.64
76239;SHT30;65043;48.392;-4.472;2022-11-21T08:56:50;13.73;72.95
76239;SHT30;65043;48.392;-4.472;2022-11-21T08:59:16;13.73;72.28
76239;SHT30;65043;48.392;-4.472;2022-11-21T09:01:42;13.69;71.11
76239;SHT30;65043;48.392;-4.472;2022-11-21T09:04:08;13.66;68.59
76239;SHT30;65043;48.392;-4.472;2022-11-21T09:06:34;13.66;68.40
76239;SHT30;65043;48.392;-4.472;2022-11-21T09:08:59;13.59;69.15
76239;SHT30;65043;48.392;-4.472;2022-11-21T09:11:25;13.57;67.72
76239;SHT30;65043;48.392;-4.472;2022-11-21T09:13:52;13.57;67.87
76239;SHT30;65043;48.392;-4.472;2022-11-21T09:16:36;13.59;68.40
76239;SHT30;65043;48.392;-4.472;2022-11-21T09:19:20;13.56;67.73
76239;SHT30;65043;48.392;-4.472;2022-11-21T09:21:50;13.56;68.46
76239;SHT30;65043;48.392;-4.472;2022-11-21T09:24:15;13.56;66.90
76239;SHT30;65043;48.392;-4.472;2022-11-21T09:26:41;13.56;66.53
76239;SHT30;65043;48.392;-4.472;2022-11-21T09:29:06;13.59;65.37
76239;SHT30;65043;48.392;-4.472;2022-11-21T09:31:37;13.59;64.82
76239;SHT30;65043;48.392;-4.472;2022-11-21T09:34:03;13.57;66.06
76239;SHT30;65043;48.392;-4.472;2022-11-21T09:36:28;13.60;66.36
76239;SHT30;65043;48.392;-4.472;2022-11-21T09:38:53;13.63;64.79
76239;SHT30;65043;48.392;-4.472;2022-11-21T09:47:23;13.56;64.14
76239;SHT30;65043;48.392;-4.472;2022-11-21T09:49:54;13.59;64.21
76239;SHT30;65043;48.392;-4.472;2022-11-21T09:52:25;13.57;65.53
76239;SHT30;65043;48.392;-4.472;2022-11-21T09:54:58;13.57;64.77
76239;SHT30;65043;48.392;-4.472;2022-11-21T09:57:25;13.60;65.92
76239;SHT30;65043;48.392;-4.472;2022-11-21T09:59:53;13.60;66.51
76239;SHT30;65043;48.392;-4.472;2022-11-21T10:02:22;13.54;66.80
76239;SHT30;65043;48.392;-4.472;2022-11-21T10:04:49;13.50;68.34
76239;SHT30;65043;48.392;-4.472;2022-11-21T10:07:26;13.47;69.11
76239;SHT30;65043;48.392;-4.472;2022-11-21T10:20:51;13.49;66.29
76239;SHT30;65043;48.392;-4.472;2022-11-21T10:26:49;13.50;64.18
76239;SHT30;65043;48.392;-4.472;2022-11-21T10:29:44;13.54;62.43
76239;SHT30;65043;48.392;-4.472;2022-11-21T10:32:36;13.53;62.71
76239;SHT30;65043;48.392;-4.472;2022-11-21T10:35:16;13.53;63.44
76239;SHT30;65043;48.392;-4.472;2022-11-21T10:37:57;13.56;62.40
76239;SHT30;65043;48.392;-4.472;2022-11-21T10:40:39;13.56;62.14
76239;SHT30;65043;48.392;-4.472;2022-11-21T10:46:20;13.53;63.19
76239;SHT30;65043;48.392;-4.472;2022-11-21T10:48:54;13.54;63.80
76239;SHT30;65043;48.392;-4.472;2022-11-21T10:51:34;13.59;65.16
76239;SHT30;65043;48.392;-4.472;2022-11-21T10:54:11;13.54;65.81
76239;SHT30;65043;48.392;-4.472;2022-11-21T10:57:06;13.52;65.78
76239;SHT30;65043;48.392;-4.472;2022-11-21T10:59:32;13.47;65.64
76239;SHT30;65043;48.392;-4.472;2022-11-21T11:04:27;13.43;66.47
76239;SHT30;65043;48.392;-4.472;2022-11-21T11:06:52;13.39;65.58
76239;SHT30;65043;48.392;-4.472;2022-11-21T11:09:25;13.40;65.79
76239;SHT30;65043;48.392;-4.472;2022-11-21T11:11:53;13.40;64.35
76239;SHT30;65043;48.392;-4.472;2022-11-21T11:14:30;13.39;62.57
76239;SHT30;65043;48.392;-4.472;2022-11-21T11:16:57;13.36;61.79
76239;SHT30;65043;48.392;-4.472;2022-11-21T11:19:27;13.40;61.58
76239;SHT30;65043;48.392;-4.472;2022-11-21T11:21:52;13.43;61.92
76239;SHT30;65043;48.392;-4.472;2022-11-21T11:24:22;13.42;61.06
76239;SHT30;65043;48.392;-4.472;2022-11-21T11:26:54;13.46;62.57
76239;SHT30;65043;48.392;-4.472;2022-11-21T11:31:59;13.56;60.90
76239;SHT30;65043;48.392;-4.472;2022-11-21T11:45:15;13.75;58.12
76239;SHT30;65043;48.392;-4.472;2022-11-21T11:48:08;13.77;57.66
76239;SHT30;65043;48.392;-4.472;2022-11-21T11:50:49;13.77;57.30
76239;SHT30;65043;48.392;-4.472;2022-11-21T11:53:23;13.75;58.96
76239;SHT30;65043;48.392;-4.472;2022-11-21T11:58:48;13.70;59.14
76239;SHT30;65043;48.392;-4.472;2022-11-21T12:04:12;13.67;59.79
76239;SHT30;65043;48.392;-4.472;2022-11-21T12:06:53;13.64;58.99
76239;SHT30;65043;48.392;-4.472;2022-11-21T12:12:14;13.57;57.74
76239;SHT30;65043;48.392;-4.472;2022-11-21T12:14:48;13.59;57.57
76239;SHT30;65043;48.392;-4.472;2022-11-21T12:20:41;13.43;61.27
76239;SHT30;65043;48.392;-4.472;2022-11-21T12:23:10;13.36;62.24
76239;SHT30;65043;48.392;-4.472;2022-11-21T12:25:40;13.33;63.26
76239;SHT30;65043;48.392;-4.472;2022-11-21T12:28:25;13.35;62.94
76239;SHT30;65043;48.392;-4.472;2022-11-21T12:33:32;13.44;61.04
76239;SHT30;65043;48.392;-4.472;2022-11-21T12:36:16;13.43;60.43
76239;SHT30;65043;48.392;-4.472;2022-11-21T12:41:36;13.42;60.86
76239;SHT30;65043;48.392;-4.472;2022-11-21T12:50:02;13.54;61.48
76239;SHT30;65043;48.392;-4.472;2022-11-21T12:52:58;13.64;60.97
76239;SHT30;65043;48.392;-4.472;2022-11-21T12:55:44;13.67;60.65
76239;SHT30;65043;48.392;-4.472;2022-11-21T12:58:40;13.73;60.60
76239;SHT30;65043;48.392;-4.472;2022-11-21T13:01:34;13.77;59.89
76239;SHT30;65043;48.392;-4.472;2022-11-21T13:04:06;13.80;58.52
76239;SHT30;65043;48.392;-4.472;2022-11-21T13:06:40;13.73;59.45
76239;SHT30;65043;48.392;-4.472;2022-11-21T13:09:12;13.70;59.23
76239;SHT30;65043;48.392;-4.472;2022-11-21T13:20:32;13.47;54.00
76239;SHT30;65043;48.392;-4.472;2022-11-21T13:23:01;13.42;55.45
76239;SHT30;65043;48.392;-4.472;2022-11-21T13:38:26;12.67;62.86
76239;SHT30;65043;48.392;-4.472;2022-11-21T13:40:52;12.51;63.63
76239;SHT30;65043;48.392;-4.472;2022-11-21T13:43:36;12.40;63.12
76239;SHT30;65043;48.392;-4.472;2022-11-21T13:46:02;12.33;64.09
76239;SHT30;65043;48.392;-4.472;2022-11-21T14:07:42;12.60;64.61
76239;SHT30;65043;48.392;-4.472;2022-11-21T14:12:50;12.77;63.89
76239;SHT30;65043;48.392;-4.472;2022-11-21T14:16:01;12.82;63.91
76239;SHT30;65043;48.392;-4.472;2022-11-21T14:18:19;12.89;63.47
76239;SHT30;65043;48.392;-4.472;2022-11-21T14:21:00;12.82;63.45
76239;SHT30;65043;48.392;-4.472;2022-11-21T14:23:32;12.84;62.24
76239;SHT30;65043;48.392;-4.472;2022-11-21T14:26:01;12.81;62.79
76239;SHT30;65043;48.392;-4.472;2022-11-21T14:28:31;12.78;63.45
76239;SHT30;65043;48.392;-4.472;2022-11-21T14:31:05;12.80;63.70
76239;SHT30;65043;48.392;-4.472;2022-11-21T14:33:31;12.84;63.83
76239;SHT30;65043;48.392;-4.472;2022-11-21T14:36:14;12.82;63.98
76239;SHT30;65043;48.392;-4.472;2022-11-21T14:38:52;12.91;64.41
76239;SHT30;65043;48.392;-4.472;2022-11-21T14:51:35;12.88;63.52
76239;SHT30;65043;48.392;-4.472;2022-11-21T14:54:01;12.85;62.61
76239;SHT30;65043;48.392;-4.472;2022-11-21T14:56:31;12.84;62.98
76239;SHT30;65043;48.392;-4.472;2022-11-21T14:59:00;12.88;62.27
76239;SHT30;65043;48.392;-4.472;2022-11-21T15:01:28;12.93;62.81
76239;SHT30;65043;48.392;-4.472;2022-11-21T15:06:21;12.98;62.79
76239;SHT30;65043;48.392;-4.472;2022-11-21T15:08:46;12.95;62.46
76239;SHT30;65043;48.392;-4.472;2022-11-21T15:11:13;12.92;61.64
76239;SHT30;65043;48.392;-4.472;2022-11-21T15:13:41;12.72;58.83
76239;SHT30;65043;48.392;-4.472;2022-11-21T15:16:08;12.43;58.52
76239;SHT30;65043;48.392;-4.472;2022-11-21T15:18:34;12.29;59.80
76239;SHT30;65043;48.392;-4.472;2022-11-21T15:21:02;12.26;60.27
76239;SHT30;65043;48.392;-4.472;2022-11-21T15:23:33;12.27;60.12
76239;SHT30;65043;48.392;-4.472;2022-11-21T15:26:00;12.31;59.90
76239;SHT30;65043;48.392;-4.472;2022-11-21T15:28:26;12.34;60.31
76239;SHT30;65043;48.392;-4.472;2022-11-21T15:31:18;12.37;59.73
76239;SHT30;65043;48.392;-4.472;2022-11-21T15:34:03;12.45;60.33
76239;SHT30;65043;48.392;-4.472;2022-11-21T15:36:31;12.51;59.15
76239;SHT30;65043;48.392;-4.472;2022-11-21T15:39:00;12.53;58.66
76239;SHT30;65043;48.392;-4.472;2022-11-21T15:41:28;12.53;59.70
76239;SHT30;65043;48.392;-4.472;2022-11-21T15:44:18;12.58;59.26
76239;SHT30;65043;48.392;-4.472;2022-11-21T15:46:43;12.61;58.99
76239;SHT30;65043;48.392;-4.472;2022-11-21T15:49:12;12.61;58.69
76239;SHT30;65043;48.392;-4.472;2022-11-21T15:51:40;12.55;59.05
76239;SHT30;65043;48.392;-4.472;2022-11-21T15:54:08;12.54;59.41
76239;SHT30;65043;48.392;-4.472;2022-11-21T15:56:34;12.51;59.89
76239;SHT30;65043;48.392;-4.472;2022-11-21T15:59:00;12.51;60.38
76239;SHT30;65043;48.392;-4.472;2022-11-21T16:01:27;12.47;60.37
76239;SHT30;65043;48.392;-4.472;2022-11-21T16:04:01;12.45;60.89
76239;SHT30;65043;48.392;-4.472;2022-11-21T16:06:27;12.41;60.36
76239;SHT30;65043;48.392;-4.472;2022-11-21T16:08:54;12.41;60.90
76239;SHT30;65043;48.392;-4.472;2022-11-21T16:13:55;12.43;60.82
76239;SHT30;65043;48.392;-4.472;2022-11-21T16:16:22;12.41;60.32
76239;SHT30;65043;48.392;-4.472;2022-11-21T16:18:48;12.38;57.54
76239;SHT30;65043;48.392;-4.472;2022-11-21T16:21:14;12.37;58.41
76239;SHT30;65043;48.392;-4.472;2022-11-21T16:23:40;12.31;59.79
76239;SHT30;65043;48.392;-4.472;2022-11-21T16:26:07;12.26;59.68
76239;SHT30;65043;48.392;-4.472;2022-11-21T16:28:33;12.19;59.06
76239;SHT30;65043;48.392;-4.472;2022-11-21T16:30:59;12.14;58.32
76239;SHT30;65043;48.392;-4.472;2022-11-21T16:33:26;12.12;58.27
76239;SHT30;65043;48.392;-4.472;2022-11-21T16:35:52;12.06;58.57
76239;SHT30;65043;48.392;-4.472;2022-11-21T16:38:28;12.02;59.48
76239;SHT30;65043;48.392;-4.472;2022-11-21T16:40:54;12.00;59.97
76239;SHT30;65043;48.392;-4.472;2022-11-21T16:43:21;12.00;60.36
76239;SHT30;65043;48.392;-4.472;2022-11-21T16:45:47;11.97;60.91
76239;SHT30;65043;48.392;-4.472;2022-11-21T16:48:12;11.99;61.05
76239;SHT30;65043;48.392;-4.472;2022-11-21T16:50:38;11.86;61.15
76239;SHT30;65043;48.392;-4.472;2022-11-21T16:53:03;11.61;62.62
76239;SHT30;65043;48.392;-4.472;2022-11-21T16:55:28;11.45;63.27
76239;SHT30;65043;48.392;-4.472;2022-11-21T16:57:56;11.25;64.15
76239;SHT30;65043;48.392;-4.472;2022-11-21T17:00:24;11.17;63.72
76239;SHT30;65043;48.392;-4.472;2022-11-21T17:02:50;11.15;65.09
76239;SHT30;65043;48.392;-4.472;2022-11-21T17:05:16;11.27;65.46
76239;SHT30;65043;48.392;-4.472;2022-11-21T17:07:42;11.35;65.41
76239;SHT30;65043;48.392;-4.472;2022-11-21T17:10:08;11.41;65.16
76239;SHT30;65043;48.392;-4.472;2022-11-21T17:12:37;11.48;65.09
76239;SHT30;65043;48.392;-4.472;2022-11-21T17:15:04;11.54;64.53
76239;SHT30;65043;48.392;-4.472;2022-11-21T17:17:30;11.59;64.39
76239;SHT30;65043;48.392;-4.472;2022-11-21T17:19:55;11.66;64.39
76239;SHT30;65043;48.392;-4.472;2022-11-21T17:22:21;11.72;64.36
76239;SHT30;65043;48.392;-4.472;2022-11-21T17:24:49;11.73;64.54
76239;SHT30;65043;48.392;-4.472;2022-11-21T17:27:16;11.79;64.65
76239;SHT30;65043;48.392;-4.472;2022-11-21T17:29:41;11.82;64.60
76239;SHT30;65043;48.392;-4.472;2022-11-21T17:32:07;11.82;64.39
76239;SHT30;65043;48.392;-4.472;2022-11-21T17:34:32;11.85;64.20
76239;SHT30;65043;48.392;-4.472;2022-11-21T17:36:58;11.89;64.41